createdAt,value
2022-09-17T00:03:16.259Z,98866.30
2022-09-17T00:07:18.265Z,98871.60
2022-09-17T00:11:32.499Z,98872.27
2022-09-17T00:15:43.230Z,98869.45
2022-09-17T00:19:45.157Z,98871.73
2022-09-17T00:23:47.204Z,98877.20
2022-09-17T00:27:49.141Z,98879.06
2022-09-17T00:31:51.260Z,98885.69
2022-09-17T00:36:01.778Z,98885.48
2022-09-17T00:40:04.531Z,98882.52
2022-09-17T00:44:39.473Z,98879.52
2022-09-17T00:48:41.444Z,98883.39
2022-09-17T00:52:47.910Z,98886.17
2022-09-17T00:56:51.816Z,98887.70
2022-09-17T01:00:53.858Z,98884.49
2022-09-17T01:04:55.900Z,98881.42
2022-09-17T01:09:17.424Z,98880.15
2022-09-17T01:13:39.585Z,98879.11
2022-09-17T01:17:44.167Z,98878.02
2022-09-17T01:21:52.936Z,98880.27
2022-09-17T01:26:16.051Z,98875.24
2022-09-17T01:30:22.192Z,98877.04
2022-09-17T01:34:41.699Z,98876.91
2022-09-17T01:39:04.984Z,98872.61
2022-09-17T01:43:09.894Z,98876.40
2022-09-17T01:47:21.207Z,98872.93
2022-09-17T01:51:25.294Z,98869.92
2022-09-17T01:55:33.162Z,98872.22
2022-09-17T01:59:43.507Z,98872.22
2022-09-17T02:04:09.127Z,98877.48
2022-09-17T02:08:21.199Z,98872.16
2022-09-17T02:12:30.968Z,98869.43
2022-09-17T02:16:35.939Z,98871.27
2022-09-17T02:20:56.599Z,98866.62
2022-09-17T02:24:58.425Z,98863.05
2022-09-17T02:29:08.828Z,98864.25
2022-09-17T02:33:14.873Z,98867.55
2022-09-17T02:37:16.967Z,98865.90
2022-09-17T02:41:31.327Z,98867.33
2022-09-17T02:45:48.617Z,98865.80
2022-09-17T02:50:14.389Z,98862.02
2022-09-17T02:54:42.133Z,98862.38
2022-09-17T02:58:53.230Z,98854.56
2022-09-17T03:03:12.205Z,98853.02
2022-09-17T03:07:14.505Z,98858.74
2022-09-17T03:11:16.477Z,98864.98
2022-09-17T03:15:18.346Z,98865.83
2022-09-17T03:19:20.227Z,98859.40
2022-09-17T03:23:22.167Z,98856.66
2022-09-17T03:27:24.062Z,98850.73
2022-09-17T03:31:26.036Z,98852.21
2022-09-17T03:35:28.056Z,98859.12
2022-09-17T03:39:30.068Z,98861.08
2022-09-17T03:43:32.048Z,98859.43
2022-09-17T03:47:33.930Z,98858.67
2022-09-17T03:51:35.932Z,98855.77
2022-09-17T03:55:38.880Z,98857.48
2022-09-17T03:59:40.781Z,98861.21
2022-09-17T04:03:42.927Z,98855.42
2022-09-17T04:07:45.184Z,98851.59
2022-09-17T04:11:47.078Z,98855.09
2022-09-17T04:15:49.267Z,98854.90
2022-09-17T04:19:51.336Z,98854.27
2022-09-17T04:23:53.258Z,98862.52
2022-09-17T04:27:56.708Z,98873.56
2022-09-17T04:31:58.727Z,98870.71
2022-09-17T04:36:00.751Z,98867.96
2022-09-17T04:40:07.710Z,98872.48
2022-09-17T04:44:10.201Z,98868.46
2022-09-17T04:48:12.409Z,98875.36
2022-09-17T04:52:14.920Z,98875.95
2022-09-17T04:56:16.828Z,98874.70
2022-09-17T05:00:20.792Z,98875.66
2022-09-17T05:04:22.721Z,98878.42
2022-09-17T05:08:24.964Z,98875.32
2022-09-17T05:12:32.415Z,98874.25
2022-09-17T05:16:36.531Z,98867.56
2022-09-17T05:20:38.715Z,98861.52
2022-09-17T05:24:40.675Z,98854.65
2022-09-17T05:28:42.594Z,98853.04
2022-09-17T05:32:44.813Z,98854.70
2022-09-17T05:36:46.805Z,98853.02
2022-09-17T05:40:48.697Z,98856.16
2022-09-17T05:44:50.731Z,98855.25
2022-09-17T05:48:56.690Z,98849.99
2022-09-17T05:53:11.941Z,98850.59
2022-09-17T05:57:15.542Z,98851.20
2022-09-17T06:01:17.502Z,98851.98
2022-09-17T06:05:19.381Z,98852.61
2022-09-17T06:09:21.954Z,98854.59
2022-09-17T06:13:23.818Z,98848.72
2022-09-17T06:17:25.752Z,98840.72
2022-09-17T06:21:27.694Z,98839.01
2022-09-17T06:25:29.784Z,98839.98
2022-09-17T06:29:31.735Z,98843.64
2022-09-17T06:33:34.332Z,98846.40
2022-09-17T06:37:39.809Z,98841.71
2022-09-17T06:41:42.825Z,98836.60
2022-09-17T06:45:50.697Z,98838.16
2022-09-17T06:49:54.135Z,98840.99
2022-09-17T06:53:56.111Z,98848.41
2022-09-17T06:57:59.608Z,98859.72
2022-09-17T07:02:01.591Z,98859.90
2022-09-17T07:06:04.947Z,98861.79
2022-09-17T07:10:07.549Z,98855.83
2022-09-17T07:14:09.512Z,98848.29
2022-09-17T07:18:11.596Z,98846.63
2022-09-17T07:22:13.719Z,98843.98
2022-09-17T07:26:16.476Z,98848.66
2022-09-17T07:30:19.553Z,98855.84
2022-09-17T07:34:21.634Z,98849.15
2022-09-17T07:38:25.036Z,98842.72
2022-09-17T07:42:27.218Z,98846.10
2022-09-17T07:46:29.719Z,98843.70
2022-09-17T07:50:33.186Z,98836.20
2022-09-17T07:54:38.421Z,98841.07
2022-09-17T07:58:40.472Z,98850.00
2022-09-17T08:02:42.769Z,98857.63
2022-09-17T08:06:47.876Z,98860.48
2022-09-17T08:10:51.401Z,98848.98
2022-09-17T08:14:53.316Z,98853.38
2022-09-17T08:18:57.188Z,98852.34
2022-09-17T08:23:00.765Z,98859.95
2022-09-17T08:27:02.955Z,98854.82
2022-09-17T08:31:07.968Z,98857.31
2022-09-17T08:35:11.448Z,98857.59
2022-09-17T08:39:13.728Z,98858.29
2022-09-17T08:43:19.163Z,98866.39
2022-09-17T08:47:33.116Z,98874.36
2022-09-17T08:51:47.023Z,98876.39
2022-09-17T08:56:21.455Z,98874.42
2022-09-17T09:00:24.441Z,98879.34
2022-09-17T09:04:58.383Z,98878.20
2022-09-17T09:09:12.882Z,98880.09
2022-09-17T09:13:18.167Z,98879.84
2022-09-17T09:17:25.582Z,98877.61
2022-09-17T09:21:45.122Z,98885.13
2022-09-17T09:26:15.057Z,98880.31
2022-09-17T09:30:23.110Z,98875.33
2022-09-17T09:34:28.441Z,98884.14
2022-09-17T09:38:40.539Z,98880.39
2022-09-17T09:42:45.773Z,98878.59
2022-09-17T09:47:27.087Z,98879.02
2022-09-17T09:51:31.658Z,98881.64
2022-09-17T09:55:58.112Z,98881.39
2022-09-17T10:00:38.481Z,98878.24
2022-09-17T10:04:40.562Z,98874.99
2022-09-17T10:09:02.387Z,98874.42
2022-09-17T10:13:14.399Z,98873.50
2022-09-17T10:17:24.609Z,98875.02
2022-09-17T10:21:36.984Z,98870.75
2022-09-17T10:25:45.356Z,98872.20
2022-09-17T10:29:54.724Z,98879.58
2022-09-17T10:34:00.950Z,98888.41
2022-09-17T10:38:03.587Z,98896.95
2022-09-17T10:42:13.933Z,98917.80
2022-09-17T10:46:34.843Z,98925.90
2022-09-17T10:50:37.665Z,98909.38
2022-09-17T10:54:48.991Z,98899.02
2022-09-17T10:59:29.790Z,98908.51
2022-09-17T11:03:50.632Z,98912.95
2022-09-17T11:08:44.478Z,98906.77
2022-09-17T11:12:56.721Z,98886.27
2022-09-17T11:16:58.903Z,98885.46
2022-09-17T11:21:21.540Z,98881.98
2022-09-17T11:25:33.844Z,98882.50
2022-09-17T11:29:39.262Z,98892.60
2022-09-17T11:34:05.836Z,98893.85
2022-09-17T11:38:21.643Z,98906.59
2022-09-17T11:42:41.953Z,98916.94
2022-09-17T11:47:11.509Z,98928.50
2022-09-17T11:51:33.315Z,98931.48
2022-09-17T11:56:24.010Z,98930.25
2022-09-17T12:00:37.634Z,98933.54
2022-09-17T12:04:46.462Z,98930.67
2022-09-17T12:09:15.275Z,98932.83
2022-09-17T12:13:26.280Z,98930.36
2022-09-17T12:17:41.286Z,98927.49
2022-09-17T12:21:58.225Z,98929.74
2022-09-17T12:26:06.363Z,98925.08
2022-09-17T12:30:13.185Z,98915.75
2022-09-17T12:34:18.126Z,98915.13
2022-09-17T12:38:35.285Z,98917.75
2022-09-17T12:43:09.949Z,98924.73
2022-09-17T12:47:33.201Z,98928.23
2022-09-17T12:51:53.800Z,98925.99
2022-09-17T12:56:05.036Z,98922.87
2022-09-17T13:00:21.205Z,98917.43
2022-09-17T13:04:56.873Z,98915.39
2022-09-17T13:09:08.801Z,98915.59
2022-09-17T13:13:13.541Z,98911.45
2022-09-17T13:17:15.390Z,98909.39
2022-09-17T13:22:05.055Z,98906.48
2022-09-17T13:26:08.683Z,98911.86
2022-09-17T13:30:12.903Z,98911.83
2022-09-17T13:34:17.794Z,98916.23
2022-09-17T13:38:23.925Z,98915.52
2022-09-17T13:42:30.016Z,98916.59
2022-09-17T13:46:33.843Z,98913.89
2022-09-17T13:50:35.779Z,98907.21
2022-09-17T13:54:42.059Z,98911.88
2022-09-17T13:58:44.012Z,98908.62
2022-09-17T14:02:46.000Z,98902.36
2022-09-17T14:06:59.465Z,98892.15
2022-09-17T14:11:26.111Z,98884.96
2022-09-17T14:15:40.286Z,98882.08
2022-09-17T14:19:51.502Z,98873.02
2022-09-17T14:24:02.215Z,98873.64
2022-09-17T14:28:31.885Z,98877.41
2022-09-17T14:33:01.811Z,98877.91
2022-09-17T14:37:04.513Z,98873.08
2022-09-17T14:41:15.432Z,98868.80
2022-09-17T14:45:40.917Z,98865.89
2022-09-17T14:49:43.203Z,98864.42
2022-09-17T14:53:47.038Z,98862.65
2022-09-17T14:58:04.718Z,98861.87
2022-09-17T15:02:29.760Z,98868.29
2022-09-17T15:06:31.865Z,98872.06
2022-09-17T15:10:45.679Z,98862.23
2022-09-17T15:14:47.997Z,98858.28
2022-09-17T15:18:55.878Z,98852.23
2022-09-17T15:23:15.757Z,98842.27
2022-09-17T15:27:29.849Z,98838.61
2022-09-17T15:31:32.171Z,98842.80
2022-09-17T15:35:34.870Z,98852.94
2022-09-17T15:39:42.549Z,98856.77
2022-09-17T15:43:46.492Z,98845.69
2022-09-17T15:47:55.008Z,98841.88
2022-09-17T15:52:33.613Z,98833.50
2022-09-17T15:56:38.596Z,98838.14
2022-09-17T16:00:40.492Z,98847.85
2022-09-17T16:04:42.407Z,98858.31
2022-09-17T16:08:55.824Z,98872.89
2022-09-17T16:12:57.726Z,98875.33
2022-09-17T16:17:08.973Z,98879.03
2022-09-17T16:21:12.457Z,98883.04
2022-09-17T16:25:15.148Z,98874.59
2022-09-17T16:29:18.660Z,98869.23
2022-09-17T16:33:20.746Z,98863.73
2022-09-17T16:37:22.741Z,98856.09
2022-09-17T16:41:24.942Z,98853.96
2022-09-17T16:45:29.081Z,98856.09
2022-09-17T16:49:31.652Z,98854.49
2022-09-17T16:53:34.330Z,98862.54
2022-09-17T16:57:36.281Z,98868.85
2022-09-17T17:01:38.552Z,98864.03
2022-09-17T17:05:40.935Z,98863.11
2022-09-17T17:09:43.012Z,98862.30
2022-09-17T17:13:45.108Z,98856.14
2022-09-17T17:17:47.964Z,98843.60
2022-09-17T17:21:52.425Z,98843.09
2022-09-17T17:25:54.517Z,98841.58
2022-09-17T17:29:56.444Z,98850.87
2022-09-17T17:33:58.343Z,98865.79
2022-09-17T17:38:00.296Z,98871.85
2022-09-17T17:42:02.226Z,98873.50
2022-09-17T17:46:09.468Z,98876.00
2022-09-17T17:50:11.726Z,98883.42
2022-09-17T17:54:13.906Z,98889.05
2022-09-17T17:58:15.890Z,98889.96
2022-09-17T18:02:18.071Z,98888.24
2022-09-17T18:06:21.061Z,98883.83
2022-09-17T18:10:25.977Z,98878.98
2022-09-17T18:14:28.172Z,98876.84
2022-09-17T18:18:45.009Z,98876.74
2022-09-17T18:22:47.601Z,98881.63
2022-09-17T18:26:49.530Z,98877.05
2022-09-17T18:30:51.750Z,98880.48
2022-09-17T18:34:53.647Z,98883.64
2022-09-17T18:39:11.064Z,98884.70
2022-09-17T18:43:23.650Z,98887.91
2022-09-17T18:47:25.629Z,98884.09
2022-09-17T18:51:28.505Z,98881.11
2022-09-17T18:55:30.654Z,98866.06
2022-09-17T18:59:32.751Z,98855.27
2022-09-17T19:03:34.779Z,98851.04
2022-09-17T19:07:36.771Z,98850.38
2022-09-17T19:11:38.778Z,98850.88
2022-09-17T19:15:40.803Z,98851.14
2022-09-17T19:19:42.761Z,98850.17
2022-09-17T19:23:50.735Z,98852.26
2022-09-17T19:28:00.923Z,98845.84
2022-09-17T19:32:02.873Z,98837.41
2022-09-17T19:36:09.929Z,98833.63
2022-09-17T19:40:15.553Z,98824.23
2022-09-17T19:44:17.658Z,98824.61
2022-09-17T19:48:24.557Z,98832.17
2022-09-17T19:52:27.354Z,98835.27
2022-09-17T19:56:29.324Z,98839.41
2022-09-17T20:00:31.342Z,98835.56
2022-09-17T20:04:34.112Z,98832.86
2022-09-17T20:08:41.594Z,98826.68
2022-09-17T20:12:45.758Z,98825.42
2022-09-17T20:16:49.731Z,98823.41
2022-09-17T20:20:51.687Z,98821.89
2022-09-17T20:24:53.703Z,98822.24
2022-09-17T20:28:55.838Z,98820.59
2022-09-17T20:32:57.713Z,98825.77
2022-09-17T20:37:12.593Z,98822.22
2022-09-17T20:41:16.205Z,98826.14
2022-09-17T20:45:18.233Z,98826.41
2022-09-17T20:49:20.253Z,98820.40
2022-09-17T20:53:22.515Z,98818.78
2022-09-17T20:57:24.956Z,98817.88
2022-09-17T21:01:34.753Z,98812.14
2022-09-17T21:05:38.626Z,98813.03
2022-09-17T21:09:41.633Z,98809.98
2022-09-17T21:13:44.158Z,98815.65
2022-09-17T21:17:47.873Z,98813.13
2022-09-17T21:21:51.251Z,98813.47
2022-09-17T21:26:00.862Z,98813.18
2022-09-17T21:30:05.964Z,98815.55
2022-09-17T21:34:12.068Z,98814.48
2022-09-17T21:38:14.190Z,98810.23
2022-09-17T21:42:16.114Z,98815.52
2022-09-17T21:46:27.129Z,98810.69
2022-09-17T21:50:29.080Z,98801.95
2022-09-17T21:54:31.077Z,98806.31
2022-09-17T21:58:34.145Z,98810.37
2022-09-17T22:02:39.069Z,98807.35
2022-09-17T22:06:42.507Z,98796.45
2022-09-17T22:10:44.438Z,98798.31
2022-09-17T22:14:46.464Z,98797.81
2022-09-17T22:18:50.716Z,98796.38
2022-09-17T22:22:52.786Z,98792.60
2022-09-17T22:26:57.669Z,98792.60
2022-09-17T22:31:03.234Z,98793.10
2022-09-17T22:35:07.518Z,98790.59
2022-09-17T22:39:10.153Z,98784.29
2022-09-17T22:43:12.782Z,98778.98
2022-09-17T22:47:14.700Z,98779.62
2022-09-17T22:51:16.906Z,98774.52
2022-09-17T22:55:18.849Z,98774.25
2022-09-17T22:59:21.518Z,98771.35
2022-09-17T23:03:26.920Z,98767.75
2022-09-17T23:07:28.866Z,98768.49
2022-09-17T23:11:36.680Z,98768.34
2022-09-17T23:15:39.007Z,98765.21
2022-09-17T23:19:41.054Z,98763.15
2022-09-17T23:23:47.044Z,98762.54
2022-09-17T23:27:49.017Z,98759.21
2022-09-17T23:31:51.208Z,98760.24
2022-09-17T23:35:53.115Z,98759.70
2022-09-17T23:39:55.135Z,98758.91
2022-09-17T23:43:59.958Z,98757.55
2022-09-17T23:48:02.027Z,98761.09
2022-09-17T23:52:04.281Z,98758.91
2022-09-17T23:56:14.220Z,98763.46
